sensor_id;sensor_type;location;lat;lon;timestamp;P1;durP1;ratioP1;P2;durP2;ratioP2
44508;SDS011;30214;52.246;14.408;2023-11-21T00:01:27;7.05;;;1.80;;
44508;SDS011;30214;52.246;14.408;2023-11-21T00:03:54;3.28;;;1.48;;
44508;SDS011;30214;52.246;14.408;2023-11-21T00:06:21;4.28;;;1.67;;
44508;SDS011;30214;52.246;14.408;2023-11-21T00:08:48;3.40;;;1.55;;
44508;SDS011;30214;52.246;14.408;2023-11-21T00:11:15;3.38;;;1.67;;
44508;SDS011;30214;52.246;14.408;2023-11-21T00:13:42;3.95;;;2.03;;
44508;SDS011;30214;52.246;14.408;2023-11-21T00:16:10;5.00;;;2.28;;
44508;SDS011;30214;52.246;14.408;2023-11-21T00:18:39;5.53;;;2.42;;
44508;SDS011;30214;52.246;14.408;2023-11-21T00:21:06;5.75;;;2.00;;
44508;SDS011;30214;52.246;14.408;2023-11-21T00:23:34;4.80;;;2.00;;
44508;SDS011;30214;52.246;14.408;2023-11-21T00:26:01;6.82;;;2.67;;
44508;SDS011;30214;52.246;14.408;2023-11-21T00:28:29;8.60;;;4.95;;
44508;SDS011;30214;52.246;14.408;2023-11-21T00:30:58;7.03;;;4.00;;
44508;SDS011;30214;52.246;14.408;2023-11-21T00:33:25;4.30;;;2.17;;
44508;SDS011;30214;52.246;14.408;2023-11-21T00:35:54;3.60;;;2.10;;
44508;SDS011;30214;52.246;14.408;2023-11-21T00:38:21;4.72;;;1.65;;
44508;SDS011;30214;52.246;14.408;2023-11-21T00:40:49;4.00;;;1.70;;
44508;SDS011;30214;52.246;14.408;2023-11-21T00:43:18;2.83;;;1.30;;
44508;SDS011;30214;52.246;14.408;2023-11-21T00:45:45;2.58;;;1.20;;
44508;SDS011;30214;52.246;14.408;2023-11-21T00:48:14;2.88;;;1.30;;
44508;SDS011;30214;52.246;14.408;2023-11-21T00:50:41;2.33;;;1.08;;
44508;SDS011;30214;52.246;14.408;2023-11-21T00:53:10;2.05;;;1.20;;
44508;SDS011;30214;52.246;14.408;2023-11-21T00:55:37;5.65;;;1.52;;
44508;SDS011;30214;52.246;14.408;2023-11-21T00:58:05;3.30;;;1.33;;
44508;SDS011;30214;52.246;14.408;2023-11-21T01:00:32;2.85;;;1.10;;
44508;SDS011;30214;52.246;14.408;2023-11-21T01:03:00;3.13;;;1.20;;
44508;SDS011;30214;52.246;14.408;2023-11-21T01:05:28;2.65;;;1.27;;
44508;SDS011;30214;52.246;14.408;2023-11-21T01:07:55;2.05;;;0.80;;
44508;SDS011;30214;52.246;14.408;2023-11-21T01:10:24;1.92;;;1.10;;
44508;SDS011;30214;52.246;14.408;2023-11-21T01:12:51;3.67;;;1.10;;
44508;SDS011;30214;52.246;14.408;2023-11-21T01:15:18;1.83;;;1.08;;
44508;SDS011;30214;52.246;14.408;2023-11-21T01:17:45;3.30;;;1.40;;
44508;SDS011;30214;52.246;14.408;2023-11-21T01:20:12;3.70;;;1.38;;
44508;SDS011;30214;52.246;14.408;2023-11-21T01:22:39;3.67;;;1.33;;
44508;SDS011;30214;52.246;14.408;2023-11-21T01:25:06;2.47;;;1.27;;
44508;SDS011;30214;52.246;14.408;2023-11-21T01:27:35;3.30;;;1.80;;
44508;SDS011;30214;52.246;14.408;2023-11-21T01:30:04;2.78;;;1.50;;
44508;SDS011;30214;52.246;14.408;2023-11-21T01:32:33;2.50;;;1.60;;
44508;SDS011;30214;52.246;14.408;2023-11-21T01:35:03;3.20;;;1.80;;
44508;SDS011;30214;52.246;14.408;2023-11-21T01:37:32;3.35;;;2.00;;
44508;SDS011;30214;52.246;14.408;2023-11-21T01:39:59;3.72;;;2.38;;
44508;SDS011;30214;52.246;14.408;2023-11-21T01:42:26;4.38;;;2.28;;
44508;SDS011;30214;52.246;14.408;2023-11-21T01:44:55;4.63;;;2.33;;
44508;SDS011;30214;52.246;14.408;2023-11-21T01:47:22;3.92;;;2.20;;
44508;SDS011;30214;52.246;14.408;2023-11-21T01:49:50;3.80;;;2.35;;
44508;SDS011;30214;52.246;14.408;2023-11-21T01:52:18;4.00;;;2.78;;
44508;SDS011;30214;52.246;14.408;2023-11-21T01:54:46;4.60;;;2.90;;
44508;SDS011;30214;52.246;14.408;2023-11-21T01:57:13;6.57;;;3.00;;
44508;SDS011;30214;52.246;14.408;2023-11-21T01:59:41;4.68;;;3.00;;
44508;SDS011;30214;52.246;14.408;2023-11-21T02:02:12;4.57;;;3.10;;
44508;SDS011;30214;52.246;14.408;2023-11-21T02:04:39;4.85;;;3.47;;
44508;SDS011;30214;52.246;14.408;2023-11-21T02:07:06;5.10;;;3.08;;
44508;SDS011;30214;52.246;14.408;2023-11-21T02:09:34;4.60;;;3.08;;
44508;SDS011;30214;52.246;14.408;2023-11-21T02:12:03;4.97;;;3.58;;
44508;SDS011;30214;52.246;14.408;2023-11-21T02:14:32;5.57;;;4.07;;
44508;SDS011;30214;52.246;14.408;2023-11-21T02:16:59;6.93;;;4.10;;
44508;SDS011;30214;52.246;14.408;2023-11-21T02:19:31;6.95;;;4.40;;
44508;SDS011;30214;52.246;14.408;2023-11-21T02:21:59;9.73;;;5.13;;
44508;SDS011;30214;52.246;14.408;2023-11-21T02:24:31;7.57;;;5.07;;
44508;SDS011;30214;52.246;14.408;2023-11-21T02:26:58;6.07;;;4.28;;
44508;SDS011;30214;52.246;14.408;2023-11-21T02:29:25;7.25;;;4.60;;
44508;SDS011;30214;52.246;14.408;2023-11-21T02:31:53;8.77;;;4.57;;
44508;SDS011;30214;52.246;14.408;2023-11-21T02:34:21;6.70;;;4.85;;
44508;SDS011;30214;52.246;14.408;2023-11-21T02:36:50;10.93;;;5.80;;
44508;SDS011;30214;52.246;14.408;2023-11-21T02:39:17;9.15;;;5.60;;
44508;SDS011;30214;52.246;14.408;2023-11-21T02:41:48;8.95;;;6.00;;
44508;SDS011;30214;52.246;14.408;2023-11-21T02:44:15;9.23;;;6.47;;
44508;SDS011;30214;52.246;14.408;2023-11-21T02:46:42;9.23;;;6.18;;
44508;SDS011;30214;52.246;14.408;2023-11-21T02:49:09;8.73;;;6.60;;
44508;SDS011;30214;52.246;14.408;2023-11-21T02:51:37;11.93;;;7.70;;
44508;SDS011;30214;52.246;14.408;2023-11-21T02:54:05;12.55;;;8.15;;
44508;SDS011;30214;52.246;14.408;2023-11-21T02:56:33;11.57;;;7.53;;
44508;SDS011;30214;52.246;14.408;2023-11-21T02:59:03;11.50;;;7.72;;
44508;SDS011;30214;52.246;14.408;2023-11-21T03:01:30;9.90;;;7.03;;
44508;SDS011;30214;52.246;14.408;2023-11-21T03:03:57;11.68;;;7.32;;
44508;SDS011;30214;52.246;14.408;2023-11-21T03:06:25;8.77;;;6.57;;
44508;SDS011;30214;52.246;14.408;2023-11-21T03:08:53;9.65;;;6.38;;
44508;SDS011;30214;52.246;14.408;2023-11-21T03:11:20;9.20;;;6.03;;
44508;SDS011;30214;52.246;14.408;2023-11-21T03:13:47;12.00;;;6.13;;
44508;SDS011;30214;52.246;14.408;2023-11-21T03:16:16;10.55;;;6.97;;
44508;SDS011;30214;52.246;14.408;2023-11-21T03:18:45;8.32;;;6.22;;
44508;SDS011;30214;52.246;14.408;2023-11-21T03:21:12;10.10;;;6.53;;
44508;SDS011;30214;52.246;14.408;2023-11-21T03:23:39;9.45;;;6.75;;
44508;SDS011;30214;52.246;14.408;2023-11-21T03:26:06;9.52;;;6.93;;
44508;SDS011;30214;52.246;14.408;2023-11-21T03:28:38;9.80;;;6.70;;
44508;SDS011;30214;52.246;14.408;2023-11-21T03:31:05;10.98;;;7.43;;
44508;SDS011;30214;52.246;14.408;2023-11-21T03:33:35;9.25;;;6.88;;
44508;SDS011;30214;52.246;14.408;2023-11-21T03:36:02;10.52;;;7.10;;
44508;SDS011;30214;52.246;14.408;2023-11-21T03:38:30;9.82;;;7.10;;
44508;SDS011;30214;52.246;14.408;2023-11-21T03:40:57;9.23;;;6.97;;
44508;SDS011;30214;52.246;14.408;2023-11-21T03:43:26;8.82;;;6.50;;
44508;SDS011;30214;52.246;14.408;2023-11-21T03:45:53;8.85;;;6.78;;
44508;SDS011;30214;52.246;14.408;2023-11-21T03:48:20;11.70;;;7.10;;
44508;SDS011;30214;52.246;14.408;2023-11-21T03:50:49;10.20;;;7.03;;
44508;SDS011;30214;52.246;14.408;2023-11-21T03:53:16;10.75;;;7.20;;
44508;SDS011;30214;52.246;14.408;2023-11-21T03:55:43;10.40;;;6.80;;
44508;SDS011;30214;52.246;14.408;2023-11-21T03:58:11;11.32;;;7.43;;
44508;SDS011;30214;52.246;14.408;2023-11-21T04:00:38;10.68;;;7.20;;
44508;SDS011;30214;52.246;14.408;2023-11-21T04:03:05;11.80;;;8.05;;
44508;SDS011;30214;52.246;14.408;2023-11-21T04:05:32;11.43;;;7.95;;
44508;SDS011;30214;52.246;14.408;2023-11-21T04:08:01;11.25;;;7.65;;
44508;SDS011;30214;52.246;14.408;2023-11-21T04:10:28;11.63;;;8.38;;
44508;SDS011;30214;52.246;14.408;2023-11-21T04:12:55;12.32;;;8.68;;
44508;SDS011;30214;52.246;14.408;2023-11-21T04:15:22;14.02;;;8.82;;
44508;SDS011;30214;52.246;14.408;2023-11-21T04:17:49;14.65;;;9.32;;
44508;SDS011;30214;52.246;14.408;2023-11-21T04:20:16;14.20;;;9.82;;
44508;SDS011;30214;52.246;14.408;2023-11-21T04:22:44;14.77;;;9.48;;
44508;SDS011;30214;52.246;14.408;2023-11-21T04:25:13;13.30;;;9.20;;
44508;SDS011;30214;52.246;14.408;2023-11-21T04:27:41;14.55;;;9.50;;
44508;SDS011;30214;52.246;14.408;2023-11-21T04:30:10;15.48;;;9.45;;
44508;SDS011;30214;52.246;14.408;2023-11-21T04:32:38;15.38;;;9.63;;
44508;SDS011;30214;52.246;14.408;2023-11-21T04:35:05;15.10;;;8.80;;
44508;SDS011;30214;52.246;14.408;2023-11-21T04:37:33;13.60;;;9.35;;
44508;SDS011;30214;52.246;14.408;2023-11-21T04:40:01;14.60;;;10.73;;
44508;SDS011;30214;52.246;14.408;2023-11-21T04:42:33;19.05;;;10.18;;
44508;SDS011;30214;52.246;14.408;2023-11-21T04:45:01;17.30;;;10.18;;
44508;SDS011;30214;52.246;14.408;2023-11-21T04:47:32;16.98;;;10.43;;
44508;SDS011;30214;52.246;14.408;2023-11-21T04:49:59;14.40;;;10.25;;
44508;SDS011;30214;52.246;14.408;2023-11-21T04:52:26;16.88;;;10.57;;
44508;SDS011;30214;52.246;14.408;2023-11-21T04:54:53;18.75;;;10.93;;
44508;SDS011;30214;52.246;14.408;2023-11-21T04:57:22;15.45;;;10.38;;
44508;SDS011;30214;52.246;14.408;2023-11-21T04:59:51;16.77;;;11.05;;
44508;SDS011;30214;52.246;14.408;2023-11-21T05:02:18;18.20;;;10.57;;
44508;SDS011;30214;52.246;14.408;2023-11-21T05:04:46;16.85;;;10.45;;
44508;SDS011;30214;52.246;14.408;2023-11-21T05:07:14;17.83;;;10.73;;
44508;SDS011;30214;52.246;14.408;2023-11-21T05:09:41;18.30;;;11.25;;
44508;SDS011;30214;52.246;14.408;2023-11-21T05:12:11;17.35;;;10.80;;
44508;SDS011;30214;52.246;14.408;2023-11-21T05:14:39;17.40;;;11.43;;
44508;SDS011;30214;52.246;14.408;2023-11-21T05:17:08;16.98;;;10.70;;
44508;SDS011;30214;52.246;14.408;2023-11-21T05:19:35;17.08;;;11.18;;
44508;SDS011;30214;52.246;14.408;2023-11-21T05:22:02;17.50;;;11.10;;
44508;SDS011;30214;52.246;14.408;2023-11-21T05:24:30;19.90;;;11.25;;
44508;SDS011;30214;52.246;14.408;2023-11-21T05:26:57;17.88;;;11.13;;
44508;SDS011;30214;52.246;14.408;2023-11-21T05:29:24;15.80;;;10.93;;
44508;SDS011;30214;52.246;14.408;2023-11-21T05:31:52;18.52;;;11.23;;
44508;SDS011;30214;52.246;14.408;2023-11-21T05:34:20;16.88;;;10.75;;
44508;SDS011;30214;52.246;14.408;2023-11-21T05:36:51;16.08;;;11.15;;
44508;SDS011;30214;52.246;14.408;2023-11-21T05:39:18;15.00;;;10.50;;
44508;SDS011;30214;52.246;14.408;2023-11-21T05:41:47;14.65;;;10.68;;
44508;SDS011;30214;52.246;14.408;2023-11-21T05:44:21;14.35;;;10.85;;
44508;SDS011;30214;52.246;14.408;2023-11-21T05:49:17;16.48;;;11.13;;
44508;SDS011;30214;52.246;14.408;2023-11-21T05:51:48;15.02;;;9.90;;
44508;SDS011;30214;52.246;14.408;2023-11-21T05:54:15;13.15;;;9.43;;
44508;SDS011;30214;52.246;14.408;2023-11-21T05:56:43;16.48;;;9.18;;
44508;SDS011;30214;52.246;14.408;2023-11-21T05:59:10;15.05;;;8.98;;
44508;SDS011;30214;52.246;14.408;2023-11-21T06:01:37;12.82;;;8.40;;
44508;SDS011;30214;52.246;14.408;2023-11-21T06:04:04;13.18;;;8.57;;
44508;SDS011;30214;52.246;14.408;2023-11-21T06:06:33;13.38;;;8.55;;
44508;SDS011;30214;52.246;14.408;2023-11-21T06:09:01;14.98;;;9.10;;
44508;SDS011;30214;52.246;14.408;2023-11-21T06:11:30;14.02;;;9.45;;
44508;SDS011;30214;52.246;14.408;2023-11-21T06:13:58;15.27;;;10.45;;
44508;SDS011;30214;52.246;14.408;2023-11-21T06:16:25;13.93;;;9.32;;
44508;SDS011;30214;52.246;14.408;2023-11-21T06:18:53;14.15;;;9.27;;
44508;SDS011;30214;52.246;14.408;2023-11-21T06:21:20;13.00;;;7.82;;
44508;SDS011;30214;52.246;14.408;2023-11-21T06:23:47;12.07;;;8.00;;
44508;SDS011;30214;52.246;14.408;2023-11-21T06:26:16;11.23;;;7.88;;
44508;SDS011;30214;52.246;14.408;2023-11-21T06:28:43;9.13;;;6.60;;
44508;SDS011;30214;52.246;14.408;2023-11-21T06:31:11;12.07;;;7.72;;
44508;SDS011;30214;52.246;14.408;2023-11-21T06:33:39;10.68;;;7.07;;
44508;SDS011;30214;52.246;14.408;2023-11-21T06:36:07;12.55;;;6.68;;
44508;SDS011;30214;52.246;14.408;2023-11-21T06:38:36;11.75;;;6.82;;
44508;SDS011;30214;52.246;14.408;2023-11-21T06:41:03;10.18;;;7.07;;
44508;SDS011;30214;52.246;14.408;2023-11-21T06:43:32;8.55;;;6.55;;
44508;SDS011;30214;52.246;14.408;2023-11-21T06:46:00;8.43;;;6.10;;
44508;SDS011;30214;52.246;14.408;2023-11-21T06:48:27;9.25;;;6.57;;
44508;SDS011;30214;52.246;14.408;2023-11-21T06:50:55;10.20;;;6.65;;
44508;SDS011;30214;52.246;14.408;2023-11-21T06:53:25;9.63;;;6.47;;
44508;SDS011;30214;52.246;14.408;2023-11-21T06:55:52;9.55;;;6.93;;
44508;SDS011;30214;52.246;14.408;2023-11-21T06:58:19;9.10;;;6.30;;
44508;SDS011;30214;52.246;14.408;2023-11-21T07:00:47;8.85;;;6.28;;
44508;SDS011;30214;52.246;14.408;2023-11-21T07:03:15;10.45;;;6.53;;
44508;SDS011;30214;52.246;14.408;2023-11-21T07:05:44;10.05;;;6.07;;
44508;SDS011;30214;52.246;14.408;2023-11-21T07:08:11;10.52;;;6.20;;
44508;SDS011;30214;52.246;14.408;2023-11-21T07:10:39;9.20;;;6.18;;
44508;SDS011;30214;52.246;14.408;2023-11-21T07:13:06;8.82;;;5.80;;
44508;SDS011;30214;52.246;14.408;2023-11-21T07:15:37;9.50;;;6.30;;
44508;SDS011;30214;52.246;14.408;2023-11-21T07:18:06;7.57;;;5.18;;
44508;SDS011;30214;52.246;14.408;2023-11-21T07:20:33;8.70;;;5.78;;
44508;SDS011;30214;52.246;14.408;2023-11-21T07:23:00;7.95;;;5.00;;
44508;SDS011;30214;52.246;14.408;2023-11-21T07:25:27;9.52;;;5.38;;
44508;SDS011;30214;52.246;14.408;2023-11-21T07:27:54;6.45;;;4.50;;
44508;SDS011;30214;52.246;14.408;2023-11-21T07:30:21;7.55;;;4.97;;
44508;SDS011;30214;52.246;14.408;2023-11-21T07:32:48;6.75;;;4.25;;
44508;SDS011;30214;52.246;14.408;2023-11-21T07:35:17;7.05;;;4.80;;
44508;SDS011;30214;52.246;14.408;2023-11-21T07:37:44;9.23;;;4.90;;
44508;SDS011;30214;52.246;14.408;2023-11-21T07:40:12;7.40;;;4.82;;
44508;SDS011;30214;52.246;14.408;2023-11-21T07:42:40;6.93;;;4.40;;
44508;SDS011;30214;52.246;14.408;2023-11-21T07:45:10;6.57;;;4.50;;
44508;SDS011;30214;52.246;14.408;2023-11-21T07:47:37;8.48;;;4.63;;
44508;SDS011;30214;52.246;14.408;2023-11-21T07:50:06;8.10;;;5.00;;
44508;SDS011;30214;52.246;14.408;2023-11-21T07:52:35;8.60;;;5.00;;
44508;SDS011;30214;52.246;14.408;2023-11-21T07:55:03;9.18;;;4.95;;
44508;SDS011;30214;52.246;14.408;2023-11-21T07:57:30;9.70;;;5.63;;
44508;SDS011;30214;52.246;14.408;2023-11-21T07:59:57;6.97;;;4.78;;
44508;SDS011;30214;52.246;14.408;2023-11-21T08:02:26;8.63;;;4.70;;
44508;SDS011;30214;52.246;14.408;2023-11-21T08:04:53;11.68;;;5.18;;
44508;SDS011;30214;52.246;14.408;2023-11-21T08:07:21;8.55;;;4.93;;
44508;SDS011;30214;52.246;14.408;2023-11-21T08:09:50;9.30;;;5.00;;
44508;SDS011;30214;52.246;14.408;2023-11-21T08:12:17;8.85;;;5.10;;
44508;SDS011;30214;52.246;14.408;2023-11-21T08:14:47;8.30;;;4.57;;
44508;SDS011;30214;52.246;14.408;2023-11-21T08:17:14;8.57;;;5.13;;
44508;SDS011;30214;52.246;14.408;2023-11-21T08:19:41;7.93;;;4.45;;
44508;SDS011;30214;52.246;14.408;2023-11-21T08:22:08;7.97;;;4.07;;
44508;SDS011;30214;52.246;14.408;2023-11-21T08:24:35;7.10;;;4.18;;
44508;SDS011;30214;52.246;14.408;2023-11-21T08:27:04;7.05;;;3.97;;
44508;SDS011;30214;52.246;14.408;2023-11-21T08:29:31;7.53;;;4.13;;
44508;SDS011;30214;52.246;14.408;2023-11-21T08:31:59;7.63;;;4.20;;
44508;SDS011;30214;52.246;14.408;2023-11-21T08:34:27;6.95;;;3.75;;
44508;SDS011;30214;52.246;14.408;2023-11-21T08:36:54;8.77;;;4.00;;
44508;SDS011;30214;52.246;14.408;2023-11-21T08:39:22;6.85;;;3.67;;
44508;SDS011;30214;52.246;14.408;2023-11-21T08:41:49;6.13;;;3.28;;
44508;SDS011;30214;52.246;14.408;2023-11-21T08:44:18;5.95;;;3.58;;
44508;SDS011;30214;52.246;14.408;2023-11-21T08:46:45;5.25;;;3.20;;
44508;SDS011;30214;52.246;14.408;2023-11-21T08:49:12;4.63;;;2.80;;
44508;SDS011;30214;52.246;14.408;2023-11-21T08:51:40;4.32;;;3.05;;
44508;SDS011;30214;52.246;14.408;2023-11-21T08:54:07;6.43;;;3.15;;
44508;SDS011;30214;52.246;14.408;2023-11-21T08:56:34;5.85;;;2.92;;
44508;SDS011;30214;52.246;14.408;2023-11-21T08:59:01;4.20;;;2.47;;
44508;SDS011;30214;52.246;14.408;2023-11-21T09:01:31;5.78;;;2.58;;
44508;SDS011;30214;52.246;14.408;2023-11-21T09:03:58;4.40;;;2.53;;
44508;SDS011;30214;52.246;14.408;2023-11-21T09:06:25;5.78;;;2.35;;
44508;SDS011;30214;52.246;14.408;2023-11-21T09:08:52;6.90;;;2.40;;
44508;SDS011;30214;52.246;14.408;2023-11-21T09:11:19;4.53;;;2.50;;
44508;SDS011;30214;52.246;14.408;2023-11-21T09:13:46;4.28;;;2.33;;
44508;SDS011;30214;52.246;14.408;2023-11-21T09:16:13;3.58;;;1.95;;
44508;SDS011;30214;52.246;14.408;2023-11-21T09:18:43;3.15;;;2.00;;
44508;SDS011;30214;52.246;14.408;2023-11-21T09:21:10;3.47;;;2.08;;
44508;SDS011;30214;52.246;14.408;2023-11-21T09:23:37;3.65;;;2.00;;
44508;SDS011;30214;52.246;14.408;2023-11-21T09:26:05;3.80;;;2.20;;
44508;SDS011;30214;52.246;14.408;2023-11-21T09:28:32;3.30;;;2.00;;
44508;SDS011;30214;52.246;14.408;2023-11-21T09:31:00;4.88;;;2.08;;
44508;SDS011;30214;52.246;14.408;2023-11-21T09:33:28;4.10;;;2.55;;
44508;SDS011;30214;52.246;14.408;2023-11-21T09:35:57;6.65;;;2.40;;
44508;SDS011;30214;52.246;14.408;2023-11-21T09:38:25;5.60;;;2.80;;
44508;SDS011;30214;52.246;14.408;2023-11-21T09:40:54;5.30;;;2.90;;
44508;SDS011;30214;52.246;14.408;2023-11-21T09:43:23;5.90;;;3.00;;
44508;SDS011;30214;52.246;14.408;2023-11-21T09:45:54;6.25;;;2.58;;
44508;SDS011;30214;52.246;14.408;2023-11-21T09:48:27;6.63;;;2.60;;
44508;SDS011;30214;52.246;14.408;2023-11-21T09:50:58;6.10;;;2.50;;
44508;SDS011;30214;52.246;14.408;2023-11-21T09:53:28;4.88;;;2.10;;
44508;SDS011;30214;52.246;14.408;2023-11-21T09:55:58;5.25;;;2.80;;
44508;SDS011;30214;52.246;14.408;2023-11-21T09:58:27;6.13;;;2.90;;
44508;SDS011;30214;52.246;14.408;2023-11-21T10:00:55;7.15;;;2.97;;
44508;SDS011;30214;52.246;14.408;2023-11-21T10:03:25;6.88;;;3.63;;
44508;SDS011;30214;52.246;14.408;2023-11-21T10:05:53;5.45;;;3.22;;
44508;SDS011;30214;52.246;14.408;2023-11-21T10:08:25;5.32;;;3.10;;
44508;SDS011;30214;52.246;14.408;2023-11-21T10:10:54;8.30;;;3.88;;
44508;SDS011;30214;52.246;14.408;2023-11-21T10:13:22;7.75;;;4.10;;
44508;SDS011;30214;52.246;14.408;2023-11-21T10:15:50;6.88;;;3.85;;
44508;SDS011;30214;52.246;14.408;2023-11-21T10:18:18;6.72;;;4.35;;
44508;SDS011;30214;52.246;14.408;2023-11-21T10:20:47;6.43;;;4.00;;
44508;SDS011;30214;52.246;14.408;2023-11-21T10:23:17;8.88;;;4.57;;
44508;SDS011;30214;52.246;14.408;2023-11-21T10:25:47;7.50;;;4.68;;
44508;SDS011;30214;52.246;14.408;2023-11-21T10:28:14;8.82;;;4.55;;
44508;SDS011;30214;52.246;14.408;2023-11-21T10:30:41;8.60;;;5.20;;
44508;SDS011;30214;52.246;14.408;2023-11-21T10:33:09;8.07;;;5.50;;
44508;SDS011;30214;52.246;14.408;2023-11-21T10:35:42;11.82;;;6.30;;
44508;SDS011;30214;52.246;14.408;2023-11-21T10:38:13;7.82;;;5.65;;
44508;SDS011;30214;52.246;14.408;2023-11-21T10:40:44;9.18;;;5.78;;
44508;SDS011;30214;52.246;14.408;2023-11-21T10:43:13;9.68;;;6.50;;
44508;SDS011;30214;52.246;14.408;2023-11-21T10:45:41;12.30;;;6.97;;
44508;SDS011;30214;52.246;14.408;2023-11-21T10:48:10;10.55;;;6.95;;
44508;SDS011;30214;52.246;14.408;2023-11-21T10:50:40;10.85;;;5.70;;
44508;SDS011;30214;52.246;14.408;2023-11-21T10:53:09;9.32;;;6.00;;
44508;SDS011;30214;52.246;14.408;2023-11-21T10:55:37;9.32;;;5.65;;
44508;SDS011;30214;52.246;14.408;2023-11-21T10:58:05;9.00;;;5.57;;
44508;SDS011;30214;52.246;14.408;2023-11-21T11:00:37;10.25;;;5.57;;
44508;SDS011;30214;52.246;14.408;2023-11-21T11:03:06;9.18;;;5.57;;
44508;SDS011;30214;52.246;14.408;2023-11-21T11:05:38;9.45;;;5.97;;
44508;SDS011;30214;52.246;14.408;2023-11-21T11:08:07;9.23;;;5.35;;
44508;SDS011;30214;52.246;14.408;2023-11-21T11:10:38;8.63;;;5.90;;
44508;SDS011;30214;52.246;14.408;2023-11-21T11:13:07;9.40;;;6.22;;
44508;SDS011;30214;52.246;14.408;2023-11-21T11:15:35;8.65;;;5.47;;
44508;SDS011;30214;52.246;14.408;2023-11-21T11:18:04;6.18;;;4.53;;
44508;SDS011;30214;52.246;14.408;2023-11-21T11:20:33;6.65;;;4.32;;
44508;SDS011;30214;52.246;14.408;2023-11-21T11:23:13;6.43;;;4.63;;
44508;SDS011;30214;52.246;14.408;2023-11-21T11:26:02;7.50;;;4.65;;
44508;SDS011;30214;52.246;14.408;2023-11-21T11:28:46;5.70;;;4.18;;
44508;SDS011;30214;52.246;14.408;2023-11-21T11:31:21;7.70;;;4.72;;
44508;SDS011;30214;52.246;14.408;2023-11-21T11:33:59;8.02;;;4.70;;
44508;SDS011;30214;52.246;14.408;2023-11-21T11:36:48;6.20;;;3.80;;
44508;SDS011;30214;52.246;14.408;2023-11-21T11:39:27;5.55;;;3.80;;
44508;SDS011;30214;52.246;14.408;2023-11-21T11:41:56;6.78;;;4.00;;
44508;SDS011;30214;52.246;14.408;2023-11-21T11:47:21;5.68;;;4.28;;
44508;SDS011;30214;52.246;14.408;2023-11-21T11:50:03;6.07;;;4.68;;
44508;SDS011;30214;52.246;14.408;2023-11-21T11:52:34;7.90;;;5.40;;
44508;SDS011;30214;52.246;14.408;2023-11-21T11:55:04;7.70;;;6.50;;
44508;SDS011;30214;52.246;14.408;2023-11-21T11:57:35;7.57;;;6.43;;
44508;SDS011;30214;52.246;14.408;2023-11-21T12:00:10;9.13;;;7.55;;
44508;SDS011;30214;52.246;14.408;2023-11-21T12:02:45;8.45;;;6.45;;
44508;SDS011;30214;52.246;14.408;2023-11-21T12:05:18;8.50;;;5.72;;
44508;SDS011;30214;52.246;14.408;2023-11-21T12:07:47;7.38;;;5.22;;
44508;SDS011;30214;52.246;14.408;2023-11-21T12:10:18;7.10;;;5.13;;
44508;SDS011;30214;52.246;14.408;2023-11-21T12:12:48;7.93;;;5.25;;
44508;SDS011;30214;52.246;14.408;2023-11-21T12:15:18;6.38;;;4.45;;
44508;SDS011;30214;52.246;14.408;2023-11-21T12:17:48;8.57;;;4.32;;
44508;SDS011;30214;52.246;14.408;2023-11-21T12:20:18;7.20;;;4.20;;
44508;SDS011;30214;52.246;14.408;2023-11-21T12:22:46;5.45;;;4.00;;
44508;SDS011;30214;52.246;14.408;2023-11-21T12:25:15;5.30;;;3.60;;
44508;SDS011;30214;52.246;14.408;2023-11-21T12:27:45;5.97;;;4.00;;
44508;SDS011;30214;52.246;14.408;2023-11-21T12:30:14;6.43;;;3.72;;
44508;SDS011;30214;52.246;14.408;2023-11-21T12:32:49;6.05;;;3.90;;
44508;SDS011;30214;52.246;14.408;2023-11-21T12:35:17;6.82;;;4.57;;
44508;SDS011;30214;52.246;14.408;2023-11-21T12:37:46;8.15;;;4.15;;
44508;SDS011;30214;52.246;14.408;2023-11-21T12:40:14;5.72;;;3.78;;
44508;SDS011;30214;52.246;14.408;2023-11-21T12:42:43;4.95;;;3.55;;
44508;SDS011;30214;52.246;14.408;2023-11-21T12:45:23;6.22;;;4.40;;
44508;SDS011;30214;52.246;14.408;2023-11-21T12:47:55;7.40;;;4.00;;
44508;SDS011;30214;52.246;14.408;2023-11-21T12:50:25;5.60;;;3.67;;
44508;SDS011;30214;52.246;14.408;2023-11-21T12:52:58;4.63;;;3.40;;
44508;SDS011;30214;52.246;14.408;2023-11-21T12:55:29;8.82;;;3.58;;
44508;SDS011;30214;52.246;14.408;2023-11-21T12:57:59;5.60;;;3.63;;
44508;SDS011;30214;52.246;14.408;2023-11-21T13:00:34;4.80;;;3.03;;
44508;SDS011;30214;52.246;14.408;2023-11-21T13:03:05;5.20;;;3.42;;
44508;SDS011;30214;52.246;14.408;2023-11-21T13:05:36;4.10;;;3.00;;
44508;SDS011;30214;52.246;14.408;2023-11-21T13:08:05;6.32;;;3.33;;
44508;SDS011;30214;52.246;14.408;2023-11-21T13:10:35;3.88;;;2.42;;
44508;SDS011;30214;52.246;14.408;2023-11-21T13:13:04;5.18;;;2.42;;
44508;SDS011;30214;52.246;14.408;2023-11-21T13:15:34;4.20;;;2.67;;
44508;SDS011;30214;52.246;14.408;2023-11-21T13:18:07;6.07;;;3.17;;
44508;SDS011;30214;52.246;14.408;2023-11-21T13:20:36;4.40;;;2.75;;
44508;SDS011;30214;52.246;14.408;2023-11-21T13:23:07;4.78;;;3.15;;
44508;SDS011;30214;52.246;14.408;2023-11-21T13:25:37;4.20;;;2.78;;
44508;SDS011;30214;52.246;14.408;2023-11-21T13:28:06;6.60;;;2.40;;
44508;SDS011;30214;52.246;14.408;2023-11-21T13:30:35;3.90;;;2.33;;
44508;SDS011;30214;52.246;14.408;2023-11-21T13:33:02;3.30;;;1.90;;
44508;SDS011;30214;52.246;14.408;2023-11-21T13:35:33;8.02;;;3.20;;
44508;SDS011;30214;52.246;14.408;2023-11-21T13:38:04;14.15;;;5.35;;
44508;SDS011;30214;52.246;14.408;2023-11-21T13:40:33;14.82;;;6.15;;
44508;SDS011;30214;52.246;14.408;2023-11-21T13:43:08;9.18;;;3.72;;
44508;SDS011;30214;52.246;14.408;2023-11-21T13:45:36;4.22;;;2.47;;
44508;SDS011;30214;52.246;14.408;2023-11-21T13:48:04;6.65;;;2.20;;
44508;SDS011;30214;52.246;14.408;2023-11-21T13:50:37;4.35;;;2.55;;
44508;SDS011;30214;52.246;14.408;2023-11-21T13:53:10;3.20;;;2.42;;
44508;SDS011;30214;52.246;14.408;2023-11-21T13:55:49;3.83;;;2.60;;
44508;SDS011;30214;52.246;14.408;2023-11-21T13:58:26;5.80;;;2.53;;
44508;SDS011;30214;52.246;14.408;2023-11-21T14:01:06;6.38;;;3.13;;
44508;SDS011;30214;52.246;14.408;2023-11-21T14:03:42;3.63;;;2.67;;
44508;SDS011;30214;52.246;14.408;2023-11-21T14:06:17;5.85;;;2.70;;
44508;SDS011;30214;52.246;14.408;2023-11-21T14:11:16;4.55;;;2.60;;
44508;SDS011;30214;52.246;14.408;2023-11-21T14:13:48;4.47;;;2.80;;
44508;SDS011;30214;52.246;14.408;2023-11-21T14:16:15;5.90;;;2.88;;
44508;SDS011;30214;52.246;14.408;2023-11-21T14:18:43;4.55;;;3.00;;
44508;SDS011;30214;52.246;14.408;2023-11-21T14:21:24;6.35;;;3.08;;
44508;SDS011;30214;52.246;14.408;2023-11-21T14:23:52;3.97;;;2.40;;
44508;SDS011;30214;52.246;14.408;2023-11-21T14:26:20;6.03;;;3.58;;
44508;SDS011;30214;52.246;14.408;2023-11-21T14:28:50;7.35;;;3.88;;
44508;SDS011;30214;52.246;14.408;2023-11-21T14:31:19;6.32;;;4.00;;
44508;SDS011;30214;52.246;14.408;2023-11-21T14:33:47;4.00;;;2.88;;
44508;SDS011;30214;52.246;14.408;2023-11-21T14:36:14;4.00;;;3.20;;
44508;SDS011;30214;52.246;14.408;2023-11-21T14:38:43;5.35;;;3.30;;
44508;SDS011;30214;52.246;14.408;2023-11-21T14:41:11;4.80;;;3.00;;
44508;SDS011;30214;52.246;14.408;2023-11-21T14:43:39;4.22;;;3.13;;
44508;SDS011;30214;52.246;14.408;2023-11-21T14:46:08;5.22;;;3.10;;
44508;SDS011;30214;52.246;14.408;2023-11-21T14:48:39;4.38;;;2.90;;